Flight Track Log - Related Links

Times and Time Zones

All times are in EST time to prevent confusion due to time zone crossing. See the AIP5038 flight status page for this flight to view local times or setup timezone preferences in your user account.

Time Position Orientation Groundspeed Altitude Reporting Facility
EST Latitude Longitude Course Direction KTS MPH feet Rate Location/Type
Sat 02:53:42 AM 46.9181 -114.0953 108° East 124 143 3,800  Level Salt Lake Center
Sat 02:54:42 AM 46.8967 -114.0992 187° South 135 155 6,400 2,132 Climbing Salt Lake Center
Sat 02:55:43 AM 46.8908 -114.0397 98° East 149 171 8,100 1,835 Climbing Salt Lake Center
Sat 02:56:43 AM 46.8803 -113.9747 103° East 162 186 10,100 1,785 Climbing Salt Lake Center
Sat 02:57:00 AM 46.8141 -113.5061 101° East  Level Estimated
Sat 02:57:44 AM 46.8656 -113.9092 108° East 169 194 11,700  Level Salt Lake Center
Sat 02:58:00 AM 46.7968 -113.4089 108° East  Level Estimated
Sat 02:58:44 AM 46.8492 -113.8375 108° East 183 211 13,100  Level Salt Lake Center
Sat 02:59:44 AM 46.8333 -113.7575 106° East 203 234 14,400 1,240 Climbing Salt Lake Center
Sat 03:00:45 AM 46.8217 -113.6794 102° East 198 228 15,600 1,091 Climbing Salt Lake Center
Sat 03:01:45 AM 46.8097 -113.5881 101° East 211 243 16,600 646 Climbing Salt Lake Center
Sat 03:02:55 AM 46.7889 -113.4839 106° East 231 266 17,000 185 Climbing Salt Lake Center
Sat 03:03:55 AM 46.7703 -113.3839 105° East 252 290 17,000  Level Salt Lake Center
Sat 03:04:56 AM 46.7519 -113.2878 106° East 263 303 17,000 -50 Level Salt Lake Center
Sat 03:05:56 AM 46.7333 -113.1892 105° East 262 302 16,900  Descending Salt Lake Center
Sat 03:06:57 AM 46.7153 -113.0878 105° East 259 298 17,000 50 Climbing Salt Lake Center
Sat 03:07:57 AM 46.6975 -112.9883 105° East 255 293 17,000 50 Level Salt Lake Center
Sat 03:08:57 AM 46.6800 -112.8819 103° East 260 299 17,100 -50 Climbing Salt Lake Center
Sat 03:09:58 AM 46.6625 -112.7778 104° East 265 305 16,900 -50 Descending Salt Lake Center
Sat 03:10:58 AM 46.6406 -112.6767 108° East 264 304 17,000 50 Climbing Salt Lake Center
Sat 03:11:59 AM 46.6222 -112.5719 104° East 267 307 17,000 -50 Level Salt Lake Center
Sat 03:12:59 AM 46.6075 -112.4681 102° East 264 304 16,900  Descending Salt Lake Center
Sat 03:13:59 AM 46.5906 -112.3639 103° East 264 304 17,000 50 Climbing Salt Lake Center
Sat 03:15:00 AM 46.5733 -112.2608 104° East 266 306 17,000  Level Salt Lake Center
Sat 03:16:00 AM 46.5489 -112.1611 110° East 264 304 17,000  Level Salt Lake Center
Sat 03:17:01 AM 46.5258 -112.0633 109° East 258 297 17,000 50 Level Salt Lake Center
Sat 03:18:01 AM 46.5100 -111.9631 103° East 254 292 17,100 50 Climbing Salt Lake Center
Sat 03:19:01 AM 46.4925 -111.8622 104° East 258 297 17,100 50 Level Salt Lake Center
Sat 03:20:02 AM 46.4694 -111.7631 109° East 260 299 17,200  Climbing Salt Lake Center
Sat 03:21:02 AM 46.4458 -111.6433 106° East 258 297 17,100 -50 Descending Salt Lake Center
Sat 03:22:03 AM 46.4283 -111.5361 103° East 264 304 17,100  Level Salt Lake Center
Sat 03:23:03 AM 46.4142 -111.4372 102° East 266 306 17,100  Level Salt Lake Center
Sat 03:24:03 AM 46.3967 -111.3347 104° East 260 299 17,100 -50 Level Salt Lake Center
Sat 03:25:04 AM 46.3786 -111.2322 104° East 260 299 17,000  Descending Salt Lake Center
Sat 03:26:04 AM 46.3542 -111.1319 109° East 259 298 17,100 50 Climbing Salt Lake Center
Sat 03:27:05 AM 46.3289 -111.0319 110° East 260 299 17,100 -50 Level Salt Lake Center
Sat 03:28:05 AM 46.3067 -110.9428 110° East 263 303 17,000 -100 Descending Salt Lake Center
Sat 03:29:05 AM 46.2861 -110.8453 107° East 260 299 16,900 50 Descending Salt Lake Center
Sat 03:30:06 AM 46.2650 -110.7500 108° East 253 291 17,100 99 Climbing Salt Lake Center
Sat 03:31:06 AM 46.2428 -110.6517 108° East 255 293 17,100  Level Salt Lake Center
Sat 03:32:06 AM 46.2228 -110.5481 106° East 264 304 17,100 -50 Level Salt Lake Center
Sat 03:33:07 AM 46.2000 -110.4456 108° East 268 308 17,000  Descending Salt Lake Center
Sat 03:34:07 AM 46.1797 -110.3411 106° East 268 308 17,100  Climbing Salt Lake Center
Sat 03:35:07 AM 46.1572 -110.2403 108° East 268 308 17,000  Descending Salt Lake Center
Sat 03:36:08 AM 46.1342 -110.1369 108° East 270 311 17,100 50 Climbing Salt Lake Center
Sat 03:37:08 AM 46.1147 -110.0342 105° East 267 307 17,100  Level Salt Lake Center
Sat 03:38:08 AM 46.0958 -109.9317 105° East 266 306 17,100 -347 Level Salt Lake Center
Sat 03:39:09 AM 46.0728 -109.8125 106° East 271 312 16,400 -446 Descending Salt Lake Center
Sat 03:40:09 AM 46.0519 -109.7103 106° East 268 308 16,200 -450 Descending Salt Lake Center
Sat 03:41:09 AM 46.0292 -109.5994 106° East 270 311 15,500 -694 Descending Salt Lake Center
Sat 03:42:10 AM 46.0056 -109.4961 108° East 269 310 14,800 -694 Descending Salt Lake Center
Sat 03:43:10 AM 45.9869 -109.3947 105° East 272 313 14,100 -900 Descending Salt Lake Center
Sat 03:44:10 AM 45.9653 -109.2958 107° East 266 306 13,000 -1,240 Descending Salt Lake Center
Sat 03:45:11 AM 45.9497 -109.1900 102° East 272 313 11,600 -1,289 Descending Salt Lake Center
Sat 03:46:11 AM 45.9364 -109.0747 99° East 273 314 10,400 -1,200 Descending Salt Lake Center
Sat 03:47:11 AM 45.9147 -108.9717 107° East 273 314 9,200 -942 Descending Salt Lake Center
Sat 03:48:12 AM 45.8972 -108.8661 103° East 275 316 8,500 -893 Descending Salt Lake Center
Sat 03:49:12 AM 45.8725 -108.7728 111° Southeast 254 292 7,400 -1,350 Descending Salt Lake Center
Sat 03:50:12 AM 45.8494 -108.6878 111° Southeast 237 273 5,800 -1,300 Descending Salt Lake Center
Sat 03:51:12 AM 45.8306 -108.6208 112° Southeast 196 226 4,800 -942 Descending Salt Lake Center
Sat 03:52:13 AM 45.8150 -108.5631 111° Southeast 149 171 3,900 -885 Descending Salt Lake Center
Sat 03:54:00 AM 45.8077 -108.5429 90° East  Level Estimated

Login

Don't have an account? Register now (free) for customized features, flight alerts, and more!